createdAt,value
2018-10-11T00:00:54.868Z,19.70
2018-10-11T00:03:23.442Z,20.43
2018-10-11T00:05:51.652Z,20.07
2018-10-11T00:08:19.859Z,19.27
2018-10-11T00:10:48.054Z,18.77
2018-10-11T00:13:16.214Z,18.50
2018-10-11T00:15:44.375Z,19.60
2018-10-11T00:18:12.535Z,19.53
2018-10-11T00:20:40.720Z,19.40
2018-10-11T00:23:09.037Z,19.30
2018-10-11T00:25:37.406Z,19.47
2018-10-11T00:28:05.723Z,19.33
2018-10-11T00:30:33.892Z,19.10
2018-10-11T00:33:02.049Z,19.53
2018-10-11T00:35:30.280Z,20.47
2018-10-11T00:37:58.454Z,19.80
2018-10-11T00:40:26.672Z,19.13
2018-10-11T00:42:54.936Z,22.70
2018-10-11T00:45:23.132Z,19.30
2018-10-11T00:47:51.285Z,19.20
2018-10-11T00:50:19.437Z,19.67
2018-10-11T00:52:47.595Z,17.93
2018-10-11T00:55:15.826Z,19.90
2018-10-11T00:57:43.987Z,20.07
2018-10-11T01:00:12.146Z,19.90
2018-10-11T01:02:40.340Z,19.50
2018-10-11T01:05:08.550Z,20.50
2018-10-11T01:07:36.744Z,19.27
2018-10-11T01:10:05.027Z,20.10
2018-10-11T01:12:33.155Z,20.80
2018-10-11T01:15:01.548Z,19.63
2018-10-11T01:17:29.743Z,19.80
2018-10-11T01:19:57.930Z,20.73
2018-10-11T01:22:26.111Z,20.33
2018-10-11T01:24:54.539Z,20.23
2018-10-11T01:27:22.718Z,19.90
2018-10-11T01:29:50.991Z,19.47
2018-10-11T01:32:19.095Z,20.60
2018-10-11T01:34:47.291Z,22.97
2018-10-11T01:37:15.463Z,22.27
2018-10-11T01:39:43.628Z,20.90
2018-10-11T01:42:11.875Z,19.83
2018-10-11T01:44:40.328Z,21.70
2018-10-11T01:47:08.670Z,22.00
2018-10-11T01:49:36.858Z,21.03
2018-10-11T01:52:05.046Z,20.93
2018-10-11T01:54:33.203Z,23.17
2018-10-11T01:57:01.402Z,20.70
2018-10-11T01:59:29.583Z,21.10
2018-10-11T02:01:57.775Z,20.30
2018-10-11T02:04:26.095Z,21.13
2018-10-11T02:06:54.274Z,20.03
2018-10-11T02:09:22.489Z,21.60
2018-10-11T02:11:50.903Z,21.53
2018-10-11T02:14:19.085Z,21.47
2018-10-11T02:16:47.274Z,20.80
2018-10-11T02:19:15.455Z,22.27
2018-10-11T02:21:43.614Z,21.33
2018-10-11T02:24:11.930Z,21.80
2018-10-11T02:26:40.116Z,22.37
2018-10-11T02:29:09.080Z,21.67
2018-10-11T02:31:37.257Z,21.87
2018-10-11T02:34:05.447Z,21.40
2018-10-11T02:36:33.655Z,22.30
2018-10-11T02:39:01.823Z,21.57
2018-10-11T02:41:30.048Z,23.40
2018-10-11T02:43:58.230Z,22.33
2018-10-11T02:46:26.382Z,22.87
2018-10-11T02:48:54.543Z,26.80
2018-10-11T02:51:22.683Z,25.87
2018-10-11T02:53:50.910Z,22.00
2018-10-11T02:56:19.986Z,23.97
2018-10-11T02:58:59.599Z,21.87
2018-10-11T03:01:27.803Z,23.33
2018-10-11T03:04:00.767Z,21.87
2018-10-11T03:06:28.923Z,23.23
2018-10-11T03:08:57.123Z,24.50
2018-10-11T03:11:25.280Z,22.07
2018-10-11T03:13:53.426Z,25.07
2018-10-11T03:16:21.627Z,24.00
2018-10-11T03:18:50.035Z,23.03
2018-10-11T03:21:18.218Z,22.30
2018-10-11T03:23:46.393Z,21.23
2018-10-11T03:26:14.551Z,22.10
2018-10-11T03:28:42.698Z,22.83
2018-10-11T03:31:10.870Z,21.43
2018-10-11T03:33:39.042Z,22.03
2018-10-11T03:36:07.247Z,22.77
2018-10-11T03:38:35.416Z,23.30
2018-10-11T03:41:03.589Z,22.27
2018-10-11T03:43:31.786Z,23.30
2018-10-11T03:45:59.965Z,24.20
2018-10-11T03:48:28.154Z,26.73
2018-10-11T03:50:56.334Z,23.70
2018-10-11T03:53:24.854Z,25.00
2018-10-11T03:55:53.050Z,22.73
2018-10-11T03:58:21.223Z,23.10
2018-10-11T04:00:49.393Z,23.97
2018-10-11T04:03:18.011Z,23.30
2018-10-11T04:05:46.215Z,23.00
2018-10-11T04:08:14.371Z,26.60
2018-10-11T04:10:42.580Z,22.57
2018-10-11T04:13:10.788Z,23.57
2018-10-11T04:15:39.046Z,28.07
2018-10-11T04:18:07.286Z,25.37
2018-10-11T04:20:35.544Z,25.60
2018-10-11T04:23:03.751Z,24.60
2018-10-11T04:25:31.943Z,24.90
2018-10-11T04:28:00.136Z,24.40
2018-10-11T04:30:28.358Z,24.77
2018-10-11T04:32:57.090Z,24.30
2018-10-11T04:35:25.643Z,23.33
2018-10-11T04:37:53.875Z,25.43
2018-10-11T04:40:22.032Z,24.80
2018-10-11T04:42:50.197Z,24.67
2018-10-11T04:45:18.346Z,26.53
2018-10-11T04:47:46.511Z,25.57
2018-10-11T04:50:14.654Z,27.73
2018-10-11T04:52:42.827Z,24.07
2018-10-11T04:55:10.979Z,23.83
2018-10-11T04:57:39.167Z,27.77
2018-10-11T05:00:07.854Z,24.13
2018-10-11T05:02:36.079Z,26.00
2018-10-11T05:05:04.302Z,25.33
2018-10-11T05:07:32.451Z,23.60
2018-10-11T05:10:00.633Z,24.03
2018-10-11T05:12:28.888Z,24.40
2018-10-11T05:14:57.064Z,24.90
2018-10-11T05:17:25.332Z,23.37
2018-10-11T05:19:53.723Z,23.43
2018-10-11T05:22:21.976Z,24.93
2018-10-11T05:24:50.125Z,25.47
2018-10-11T05:27:18.291Z,24.30
2018-10-11T05:29:46.453Z,28.20
2018-10-11T05:32:14.745Z,25.27
2018-10-11T05:34:42.894Z,25.33
2018-10-11T05:37:11.177Z,25.57
2018-10-11T05:39:39.419Z,27.50
2018-10-11T05:42:07.635Z,24.73
2018-10-11T05:44:35.858Z,24.37
2018-10-11T05:47:03.987Z,23.80
2018-10-11T05:49:32.210Z,25.33
2018-10-11T05:52:00.648Z,25.10
2018-10-11T05:54:28.905Z,26.67
2018-10-11T05:56:57.087Z,25.53
2018-10-11T05:59:25.236Z,27.10
2018-10-11T06:01:53.567Z,26.20
2018-10-11T06:04:21.877Z,26.47
2018-10-11T06:06:49.992Z,27.03
2018-10-11T06:09:18.388Z,25.60
2018-10-11T06:11:46.825Z,25.30
2018-10-11T06:14:15.402Z,26.73
2018-10-11T06:16:43.641Z,33.23
2018-10-11T06:19:13.140Z,26.67
2018-10-11T06:21:41.347Z,26.43
2018-10-11T06:24:09.530Z,26.10
2018-10-11T06:26:37.706Z,25.53
2018-10-11T06:29:06.127Z,25.57
2018-10-11T06:31:34.327Z,25.37
2018-10-11T06:34:02.471Z,25.13
2018-10-11T06:36:31.106Z,25.60
2018-10-11T06:38:59.768Z,25.07
2018-10-11T06:41:28.182Z,26.00
2018-10-11T06:43:56.805Z,25.27
2018-10-11T06:46:24.985Z,25.97
2018-10-11T06:48:53.343Z,26.33
2018-10-11T06:51:21.535Z,25.13
2018-10-11T06:53:50.535Z,24.80
2018-10-11T06:56:18.749Z,25.00
2018-10-11T06:58:46.913Z,24.93
2018-10-11T07:01:15.074Z,25.17
2018-10-11T07:03:43.238Z,24.03
2018-10-11T07:06:12.101Z,25.23
2018-10-11T07:11:53.697Z,24.20
2018-10-11T07:14:21.882Z,25.60
2018-10-11T07:16:50.099Z,24.77
2018-10-11T07:19:18.292Z,25.17
2018-10-11T07:21:46.480Z,24.77
2018-10-11T07:24:14.662Z,24.07
2018-10-11T07:26:42.839Z,26.93
2018-10-11T07:29:11.007Z,25.13
2018-10-11T07:31:39.210Z,25.07
2018-10-11T07:34:07.442Z,24.23
2018-10-11T07:36:35.640Z,23.50
2018-10-11T07:39:05.551Z,23.30
2018-10-11T07:41:33.762Z,23.37
2018-10-11T07:44:01.903Z,26.00
2018-10-11T07:46:30.047Z,24.73
2018-10-11T07:48:58.229Z,24.43
2018-10-11T07:51:26.406Z,24.17
2018-10-11T07:53:59.829Z,23.00
2018-10-11T07:56:28.108Z,22.77
2018-10-11T07:58:56.300Z,24.33
2018-10-11T08:01:24.622Z,23.17
2018-10-11T08:03:52.711Z,22.93
2018-10-11T08:06:21.743Z,23.00
2018-10-11T08:08:49.959Z,23.57
2018-10-11T08:11:25.792Z,26.53
2018-10-11T08:13:54.238Z,22.00
2018-10-11T08:16:22.806Z,22.40
2018-10-11T08:18:51.337Z,21.43
2018-10-11T08:21:19.446Z,23.07
2018-10-11T08:23:47.691Z,27.73
2018-10-11T08:26:16.263Z,22.07
2018-10-11T08:28:44.107Z,25.87
2018-10-11T08:31:12.575Z,21.87
2018-10-11T08:33:40.735Z,24.47
2018-10-11T08:36:09.158Z,22.20
2018-10-11T08:38:37.567Z,29.33
2018-10-11T08:41:05.707Z,25.10
2018-10-11T08:43:33.972Z,20.77
2018-10-11T08:46:02.020Z,20.57
2018-10-11T08:48:30.338Z,20.83
2018-10-11T08:50:58.687Z,23.33
2018-10-11T08:53:26.866Z,22.43
2018-10-11T08:55:55.149Z,20.67
2018-10-11T08:58:23.329Z,19.67
2018-10-11T09:00:51.476Z,20.37
2018-10-11T09:03:19.740Z,20.87
2018-10-11T09:05:47.899Z,20.50
2018-10-11T09:08:16.091Z,20.40
2018-10-11T09:10:44.348Z,21.03
2018-10-11T09:13:12.534Z,20.37
2018-10-11T09:15:40.745Z,20.17
2018-10-11T09:18:08.978Z,20.60
2018-10-11T09:20:37.174Z,20.17
2018-10-11T09:23:05.411Z,20.77
2018-10-11T09:25:33.630Z,22.87
2018-10-11T09:28:01.854Z,23.13
2018-10-11T09:30:30.111Z,22.93
2018-10-11T09:32:58.242Z,19.93
2018-10-11T09:35:26.439Z,19.50
2018-10-11T09:37:54.619Z,19.57
2018-10-11T09:40:22.808Z,19.17
2018-10-11T09:42:50.960Z,20.53
2018-10-11T09:45:19.220Z,21.17
2018-10-11T09:47:47.346Z,20.10
2018-10-11T09:50:15.583Z,18.73
2018-10-11T09:52:43.918Z,17.90
2018-10-11T09:55:12.312Z,17.77
2018-10-11T09:57:40.558Z,19.80
2018-10-11T10:00:16.629Z,18.00
2018-10-11T10:02:45.925Z,18.70
2018-10-11T10:05:14.083Z,19.23
2018-10-11T10:07:42.278Z,18.60
2018-10-11T10:10:10.463Z,17.80
2018-10-11T10:12:38.704Z,18.33
2018-10-11T10:15:06.931Z,21.33
2018-10-11T10:17:35.578Z,19.77
2018-10-11T10:20:03.771Z,18.10
2018-10-11T10:22:31.961Z,17.63
2018-10-11T10:25:00.135Z,17.23
2018-10-11T10:27:28.351Z,16.67
2018-10-11T10:29:56.540Z,16.87
2018-10-11T10:32:24.724Z,17.07
2018-10-11T10:34:53.018Z,18.73
2018-10-11T10:37:21.182Z,16.13
2018-10-11T10:39:49.404Z,16.97
2018-10-11T10:42:17.594Z,17.63
2018-10-11T10:44:45.903Z,15.27
2018-10-11T10:47:14.047Z,18.47
2018-10-11T10:49:42.197Z,16.37
2018-10-11T10:52:10.351Z,19.37
2018-10-11T10:54:38.547Z,21.53
2018-10-11T10:57:06.950Z,16.27
2018-10-11T10:59:36.095Z,17.27
2018-10-11T11:02:04.285Z,17.60
2018-10-11T11:04:32.435Z,15.70
2018-10-11T11:07:00.654Z,16.23
2018-10-11T11:09:28.896Z,14.77
2018-10-11T11:11:57.174Z,14.90
2018-10-11T11:14:25.422Z,15.60
2018-10-11T11:16:53.626Z,15.63
2018-10-11T11:19:21.783Z,13.73
2018-10-11T11:21:51.235Z,26.43
2018-10-11T11:24:19.390Z,17.07
2018-10-11T11:26:47.634Z,15.80
2018-10-11T11:29:15.882Z,14.30
2018-10-11T11:31:44.072Z,15.37
2018-10-11T11:34:12.227Z,13.83
2018-10-11T11:36:40.489Z,14.77
2018-10-11T11:39:57.049Z,14.43
2018-10-11T11:42:25.941Z,14.67
2018-10-11T11:44:54.126Z,13.37
2018-10-11T11:47:22.339Z,15.87
2018-10-11T11:49:50.602Z,13.60
2018-10-11T11:52:18.802Z,12.97
2018-10-11T11:54:46.983Z,13.53
2018-10-11T11:57:15.142Z,12.93
2018-10-11T11:59:43.335Z,14.70
2018-10-11T12:02:11.651Z,13.83
2018-10-11T12:04:39.839Z,14.27
2018-10-11T12:07:08.169Z,14.53
2018-10-11T12:09:36.315Z,19.33
2018-10-11T12:12:04.554Z,13.63
2018-10-11T12:14:32.761Z,13.67
2018-10-11T12:17:01.049Z,15.90
2018-10-11T12:19:29.208Z,13.87
2018-10-11T12:21:57.459Z,12.93
2018-10-11T12:24:25.676Z,13.07
2018-10-11T12:26:53.854Z,17.77
2018-10-11T12:29:22.026Z,15.07
2018-10-11T12:31:50.212Z,15.70
2018-10-11T12:34:18.370Z,14.13
2018-10-11T12:36:46.598Z,21.57
2018-10-11T12:39:14.778Z,16.53
2018-10-11T12:41:42.974Z,15.00
2018-10-11T12:44:11.256Z,13.70
2018-10-11T12:46:41.135Z,16.37
2018-10-11T12:49:08.900Z,18.70
2018-10-11T12:51:37.061Z,16.33
2018-10-11T12:54:05.226Z,20.80
2018-10-11T12:56:33.493Z,19.93
2018-10-11T12:59:01.741Z,24.40
2018-10-11T13:01:29.916Z,13.33
2018-10-11T13:04:02.822Z,16.53
2018-10-11T13:06:31.870Z,19.87
2018-10-11T13:09:00.655Z,14.27
2018-10-11T13:11:29.038Z,14.53
2018-10-11T13:13:57.273Z,14.10
2018-10-11T13:16:25.562Z,14.43
2018-10-11T13:18:53.819Z,15.97
2018-10-11T13:21:21.958Z,14.30
2018-10-11T13:23:50.968Z,19.97
2018-10-11T13:26:19.206Z,13.90
2018-10-11T13:28:47.551Z,17.47
2018-10-11T13:31:15.744Z,13.50
2018-10-11T13:33:43.962Z,13.10
2018-10-11T13:36:12.254Z,24.07
2018-10-11T13:38:40.571Z,13.80
2018-10-11T13:41:09.060Z,13.63
2018-10-11T13:43:37.214Z,13.60
2018-10-11T13:46:05.466Z,15.03
2018-10-11T13:48:35.779Z,12.87
2018-10-11T13:51:04.038Z,13.07
2018-10-11T13:53:32.227Z,14.20
2018-10-11T13:56:00.567Z,12.33
2018-10-11T13:58:28.786Z,15.17
2018-10-11T14:00:56.996Z,13.43
2018-10-11T14:03:25.150Z,13.40
2018-10-11T14:05:53.303Z,13.17
2018-10-11T14:08:21.602Z,13.53
2018-10-11T14:10:49.876Z,21.57
2018-10-11T14:13:20.485Z,16.23
2018-10-11T14:15:46.386Z,13.37
2018-10-11T14:18:14.975Z,13.67
2018-10-11T14:20:43.123Z,14.83
2018-10-11T14:23:11.392Z,12.23
2018-10-11T14:25:39.803Z,12.70
2018-10-11T14:28:08.025Z,13.33
2018-10-11T14:30:36.383Z,15.87
2018-10-11T14:33:04.586Z,17.33
2018-10-11T14:35:32.743Z,11.53
2018-10-11T14:38:00.998Z,13.40
2018-10-11T14:40:29.460Z,13.50
2018-10-11T14:42:57.663Z,15.27
2018-10-11T14:45:25.854Z,16.53
2018-10-11T14:47:54.207Z,12.23
2018-10-11T14:50:22.480Z,17.00
2018-10-11T14:52:50.829Z,13.53
2018-10-11T14:55:19.032Z,13.33
2018-10-11T14:57:47.234Z,13.27
2018-10-11T15:00:15.479Z,16.90
2018-10-11T15:02:43.764Z,15.03
2018-10-11T15:05:12.028Z,13.43
2018-10-11T15:07:40.182Z,16.27
2018-10-11T15:10:08.415Z,13.70
2018-10-11T15:12:36.675Z,12.30
2018-10-11T15:15:05.174Z,14.70
2018-10-11T15:17:33.522Z,13.73
2018-10-11T15:20:01.782Z,12.30
2018-10-11T15:22:30.029Z,12.53
2018-10-11T15:24:58.228Z,11.47
2018-10-11T15:27:26.462Z,14.83
2018-10-11T15:29:54.702Z,15.07
2018-10-11T15:32:22.892Z,15.47
2018-10-11T15:34:51.187Z,16.87
2018-10-11T15:37:19.446Z,12.63
2018-10-11T15:39:47.691Z,12.33
2018-10-11T15:42:16.032Z,13.07
2018-10-11T15:47:18.632Z,14.60
2018-10-11T16:23:21.394Z,16.13
2018-10-11T16:25:49.728Z,17.30
2018-10-11T16:28:18.059Z,16.90
2018-10-11T16:30:46.386Z,19.53
2018-10-11T16:33:14.564Z,20.93
2018-10-11T16:35:42.808Z,13.43
2018-10-11T16:38:11.112Z,15.53
2018-10-11T16:40:40.534Z,18.47
2018-10-11T16:43:08.769Z,17.50
2018-10-11T16:45:37.108Z,16.93
2018-10-11T16:48:05.411Z,18.57
2018-10-11T16:50:33.785Z,21.90
2018-10-11T16:53:02.290Z,23.77
2018-10-11T16:55:30.540Z,25.23
2018-10-11T16:57:58.773Z,18.43
2018-10-11T17:00:27.204Z,17.17
2018-10-11T17:02:55.468Z,18.17
2018-10-11T17:05:23.703Z,15.97
2018-10-11T17:07:52.002Z,21.17
2018-10-11T17:10:20.143Z,17.33
2018-10-11T17:12:48.375Z,17.63
2018-10-11T17:15:16.615Z,17.13
2018-10-11T17:17:44.875Z,17.23
2018-10-11T17:20:13.399Z,19.87
2018-10-11T17:22:41.583Z,20.27
2018-10-11T17:25:09.828Z,22.27
2018-10-11T17:27:38.033Z,15.77
2018-10-11T17:30:06.556Z,17.37
2018-10-11T17:32:34.770Z,19.03
2018-10-11T17:35:03.091Z,21.43
2018-10-11T17:37:31.220Z,21.87
2018-10-11T17:39:59.358Z,14.90
2018-10-11T17:42:27.523Z,16.43
2018-10-11T17:44:55.718Z,16.00
2018-10-11T17:47:23.926Z,17.63
2018-10-11T17:49:52.183Z,23.10
2018-10-11T17:52:20.399Z,17.80
2018-10-11T17:54:51.574Z,22.50
2018-10-11T17:57:23.035Z,19.13
2018-10-11T17:59:51.199Z,21.53
2018-10-11T18:02:20.497Z,17.30
2018-10-11T18:04:48.809Z,35.40
2018-10-11T18:07:17.062Z,21.97
2018-10-11T18:09:45.255Z,16.47
2018-10-11T18:12:13.487Z,19.03
2018-10-11T18:14:41.687Z,14.67
2018-10-11T18:17:09.855Z,14.17
2018-10-11T18:19:38.025Z,18.53
2018-10-11T18:22:07.040Z,16.13
2018-10-11T18:24:35.207Z,13.60
2018-10-11T18:27:03.374Z,13.93
2018-10-11T18:29:31.576Z,14.23
2018-10-11T18:31:59.756Z,16.07
2018-10-11T18:34:27.899Z,13.50
2018-10-11T18:36:56.063Z,14.50
2018-10-11T18:39:24.268Z,15.83
2018-10-11T18:41:52.511Z,15.00
2018-10-11T18:44:20.714Z,15.87
2018-10-11T18:46:48.903Z,18.27
2018-10-11T18:49:17.117Z,13.27
2018-10-11T18:51:45.479Z,13.50
2018-10-11T18:54:13.728Z,16.90
2018-10-11T18:56:41.898Z,15.90
2018-10-11T18:59:10.082Z,16.27
2018-10-11T19:01:38.262Z,16.17
2018-10-11T19:04:06.443Z,14.33
2018-10-11T19:06:34.677Z,12.33
2018-10-11T19:09:03.176Z,15.53
2018-10-11T19:11:31.333Z,16.23
2018-10-11T19:13:59.482Z,16.80
2018-10-11T19:16:27.723Z,17.03
2018-10-11T19:18:55.965Z,16.57
2018-10-11T19:21:24.139Z,19.37
2018-10-11T19:23:52.293Z,15.97
2018-10-11T19:26:20.475Z,14.50
2018-10-11T19:28:48.639Z,16.07
2018-10-11T19:31:16.842Z,19.47
2018-10-11T19:33:45.030Z,17.77
2018-10-11T19:36:13.269Z,18.00
2018-10-11T19:38:41.477Z,15.27
2018-10-11T19:41:09.639Z,14.53
2018-10-11T19:43:37.894Z,14.93
2018-10-11T19:46:06.035Z,14.17
2018-10-11T19:48:34.316Z,13.63
2018-10-11T19:51:02.467Z,19.47
2018-10-11T19:53:30.615Z,18.97
2018-10-11T19:55:58.813Z,16.37
2018-10-11T19:58:27.019Z,14.27
2018-10-11T20:00:55.188Z,15.83
2018-10-11T20:03:23.333Z,18.67
2018-10-11T20:05:51.495Z,14.37
2018-10-11T20:08:19.633Z,15.83
2018-10-11T20:10:47.776Z,15.37
2018-10-11T20:13:15.975Z,16.03
2018-10-11T20:15:44.194Z,15.47
2018-10-11T20:18:12.354Z,21.53
2018-10-11T20:20:40.588Z,24.97
2018-10-11T20:23:08.876Z,16.30
2018-10-11T20:25:37.014Z,14.93
2018-10-11T20:28:05.175Z,15.33
2018-10-11T20:30:33.346Z,16.50
2018-10-11T20:33:01.471Z,18.37
2018-10-11T20:35:29.614Z,14.50
2018-10-11T20:37:57.742Z,16.53
2018-10-11T20:40:25.890Z,15.17
2018-10-11T20:42:54.022Z,16.20
2018-10-11T20:45:22.219Z,15.73
2018-10-11T20:47:50.376Z,19.57
2018-10-11T20:50:18.524Z,15.67
2018-10-11T20:52:46.697Z,17.83
2018-10-11T20:55:14.867Z,17.70
2018-10-11T20:57:43.060Z,18.50
2018-10-11T21:00:11.230Z,15.50
2018-10-11T21:02:39.430Z,14.77
2018-10-11T21:05:07.628Z,15.90
2018-10-11T21:07:35.785Z,14.90
2018-10-11T21:10:03.945Z,14.70
2018-10-11T21:12:32.092Z,14.87
2018-10-11T21:15:00.240Z,14.40
2018-10-11T21:17:28.510Z,16.40
2018-10-11T21:19:56.726Z,14.13
2018-10-11T21:22:24.869Z,14.83
2018-10-11T21:24:53.333Z,14.93
2018-10-11T21:27:21.470Z,17.07
2018-10-11T21:29:49.615Z,16.87
2018-10-11T21:32:17.791Z,18.10
2018-10-11T21:34:45.982Z,14.60
2018-10-11T21:37:14.353Z,15.13
2018-10-11T21:39:42.536Z,14.57
2018-10-11T21:42:10.698Z,13.50
2018-10-11T21:44:39.141Z,14.83
2018-10-11T21:47:07.482Z,15.60
2018-10-11T21:49:35.660Z,15.77
2018-10-11T21:52:03.789Z,15.27
2018-10-11T21:54:32.004Z,15.07
2018-10-11T21:57:00.235Z,18.37
2018-10-11T21:59:28.457Z,15.57
2018-10-11T22:01:56.674Z,15.43
2018-10-11T22:04:24.909Z,16.63
2018-10-11T22:06:53.065Z,16.47
2018-10-11T22:09:21.230Z,15.67
2018-10-11T22:11:49.427Z,17.03
2018-10-11T22:14:17.571Z,19.00
2018-10-11T22:16:45.756Z,19.13
2018-10-11T22:19:13.930Z,15.30
2018-10-11T22:21:42.083Z,16.07
2018-10-11T22:24:10.282Z,13.97
2018-10-11T22:26:38.494Z,15.63
2018-10-11T22:29:06.759Z,15.07
2018-10-11T22:31:34.903Z,13.30
2018-10-11T22:34:03.044Z,13.63
2018-10-11T22:36:31.266Z,16.03
2018-10-11T22:38:59.399Z,13.27
2018-10-11T22:41:27.574Z,13.40
2018-10-11T22:43:55.732Z,16.10
2018-10-11T22:46:23.946Z,13.47
2018-10-11T22:48:52.115Z,16.90
2018-10-11T22:51:20.275Z,20.10
2018-10-11T22:53:48.432Z,15.00
2018-10-11T22:58:39.645Z,13.23
2018-10-11T23:01:07.946Z,13.70
2018-10-11T23:03:36.802Z,14.97
2018-10-11T23:06:05.522Z,16.13
2018-10-11T23:08:34.516Z,14.53
2018-10-11T23:11:02.805Z,13.53
2018-10-11T23:13:31.223Z,14.67
2018-10-11T23:15:59.465Z,13.33
2018-10-11T23:18:27.760Z,17.40
2018-10-11T23:20:56.084Z,16.90
2018-10-11T23:23:24.415Z,14.77
2018-10-11T23:25:52.785Z,16.63
2018-10-11T23:28:21.047Z,13.40
2018-10-11T23:30:49.317Z,17.00
2018-10-11T23:33:17.653Z,17.13
2018-10-11T23:35:45.982Z,15.83
2018-10-11T23:38:14.313Z,12.87
2018-10-11T23:40:42.632Z,14.90
2018-10-11T23:43:11.825Z,13.70
2018-10-11T23:45:40.101Z,13.17
2018-10-11T23:48:08.440Z,14.00
2018-10-11T23:50:36.809Z,14.00
2018-10-11T23:53:05.150Z,15.73
2018-10-11T23:55:33.461Z,14.73
2018-10-11T23:58:02.426Z,12.83
